Terminal Aerodrome Forecast
Issued by NWS

Home | Current Version | Previous Version | Text Only | Print | Product List | Glossary On
Versions: 1 2 3 4 5 6 7 8 9 10 11 12
000
FTUS44 KTSA 192300
TAFBVO
TAF
KBVO 192320Z 2000/2024 15006KT P6SM VCSH SCT100 SCT250
     FM200300 17005KT P6SM VCSH BKN060
     FM201500 19003KT P6SM SCT060=

USA.gov is the U.S. government's official web portal to all federal, state and local government web resources and services.